sensor_id;sensor_type;location;lat;lon;timestamp;temperature;humidity
22364;DHT22;11349;53.412;-1.328;2023-08-06T00:00:25;11.40;99.90
22364;DHT22;11349;53.412;-1.328;2023-08-06T00:02:51;11.40;99.90
22364;DHT22;11349;53.412;-1.328;2023-08-06T00:05:17;11.50;99.90
22364;DHT22;11349;53.412;-1.328;2023-08-06T00:07:49;11.50;86.80
22364;DHT22;11349;53.412;-1.328;2023-08-06T00:10:15;11.40;45.00
22364;DHT22;11349;53.412;-1.328;2023-08-06T00:12:41;11.50;53.90
22364;DHT22;11349;53.412;-1.328;2023-08-06T00:15:07;11.50;33.80
22364;DHT22;11349;53.412;-1.328;2023-08-06T00:17:34;11.50;29.10
22364;DHT22;11349;53.412;-1.328;2023-08-06T00:20:00;11.50;32.10
22364;DHT22;11349;53.412;-1.328;2023-08-06T00:22:31;11.40;38.30
22364;DHT22;11349;53.412;-1.328;2023-08-06T00:24:57;11.50;14.50
22364;DHT22;11349;53.412;-1.328;2023-08-06T00:27:23;11.40;1.00
22364;DHT22;11349;53.412;-1.328;2023-08-06T00:29:49;11.40;1.00
22364;DHT22;11349;53.412;-1.328;2023-08-06T00:32:14;11.40;1.00
22364;DHT22;11349;53.412;-1.328;2023-08-06T00:34:40;11.40;1.00
22364;DHT22;11349;53.412;-1.328;2023-08-06T00:37:06;11.40;1.00
22364;DHT22;11349;53.412;-1.328;2023-08-06T00:39:32;11.40;1.00
22364;DHT22;11349;53.412;-1.328;2023-08-06T00:41:57;11.40;1.00
22364;DHT22;11349;53.412;-1.328;2023-08-06T00:44:24;11.30;1.00
22364;DHT22;11349;53.412;-1.328;2023-08-06T00:46:50;11.30;1.00
22364;DHT22;11349;53.412;-1.328;2023-08-06T00:49:15;11.30;1.00
22364;DHT22;11349;53.412;-1.328;2023-08-06T00:51:42;11.30;1.00
22364;DHT22;11349;53.412;-1.328;2023-08-06T00:54:09;11.40;1.00
22364;DHT22;11349;53.412;-1.328;2023-08-06T00:56:35;11.30;1.00
22364;DHT22;11349;53.412;-1.328;2023-08-06T00:59:01;11.30;1.00
22364;DHT22;11349;53.412;-1.328;2023-08-06T01:01:28;11.30;1.00
22364;DHT22;11349;53.412;-1.328;2023-08-06T01:03:54;11.40;1.00
22364;DHT22;11349;53.412;-1.328;2023-08-06T01:06:30;11.30;3.40
22364;DHT22;11349;53.412;-1.328;2023-08-06T01:09:15;11.30;28.40
22364;DHT22;11349;53.412;-1.328;2023-08-06T01:15:22;11.30;70.50
22364;DHT22;11349;53.412;-1.328;2023-08-06T01:17:47;11.20;70.60
22364;DHT22;11349;53.412;-1.328;2023-08-06T01:20:13;11.30;83.80
22364;DHT22;11349;53.412;-1.328;2023-08-06T01:22:39;11.20;7.10
22364;DHT22;11349;53.412;-1.328;2023-08-06T01:25:05;11.20;1.00
22364;DHT22;11349;53.412;-1.328;2023-08-06T01:27:53;11.30;1.00
22364;DHT22;11349;53.412;-1.328;2023-08-06T01:30:25;11.20;21.60
22364;DHT22;11349;53.412;-1.328;2023-08-06T01:32:58;11.20;1.00
22364;DHT22;11349;53.412;-1.328;2023-08-06T01:35:27;11.10;1.00
22364;DHT22;11349;53.412;-1.328;2023-08-06T01:37:53;11.10;13.80
22364;DHT22;11349;53.412;-1.328;2023-08-06T01:40:20;11.10;1.00
22364;DHT22;11349;53.412;-1.328;2023-08-06T01:42:45;11.10;13.00
22364;DHT22;11349;53.412;-1.328;2023-08-06T01:45:11;11.10;30.60
22364;DHT22;11349;53.412;-1.328;2023-08-06T01:47:37;11.10;61.50
22364;DHT22;11349;53.412;-1.328;2023-08-06T01:50:03;11.00;99.90
22364;DHT22;11349;53.412;-1.328;2023-08-06T01:52:29;11.00;99.90
22364;DHT22;11349;53.412;-1.328;2023-08-06T01:54:55;11.00;99.90
22364;DHT22;11349;53.412;-1.328;2023-08-06T01:57:20;11.00;99.90
22364;DHT22;11349;53.412;-1.328;2023-08-06T01:59:46;10.90;99.90
22364;DHT22;11349;53.412;-1.328;2023-08-06T02:02:12;10.90;99.90
22364;DHT22;11349;53.412;-1.328;2023-08-06T02:04:38;11.00;99.90
22364;DHT22;11349;53.412;-1.328;2023-08-06T02:07:04;10.90;99.90
22364;DHT22;11349;53.412;-1.328;2023-08-06T02:09:29;10.90;99.90
22364;DHT22;11349;53.412;-1.328;2023-08-06T02:11:55;10.90;99.90
22364;DHT22;11349;53.412;-1.328;2023-08-06T02:14:21;10.90;99.90
22364;DHT22;11349;53.412;-1.328;2023-08-06T02:16:46;10.90;99.90
22364;DHT22;11349;53.412;-1.328;2023-08-06T02:19:12;10.90;99.90
22364;DHT22;11349;53.412;-1.328;2023-08-06T02:21:38;10.90;99.90
22364;DHT22;11349;53.412;-1.328;2023-08-06T02:24:03;10.90;99.90
22364;DHT22;11349;53.412;-1.328;2023-08-06T02:26:29;10.90;99.90
22364;DHT22;11349;53.412;-1.328;2023-08-06T02:28:55;10.80;99.90
22364;DHT22;11349;53.412;-1.328;2023-08-06T02:31:21;10.90;99.90
22364;DHT22;11349;53.412;-1.328;2023-08-06T02:33:46;10.90;99.90
22364;DHT22;11349;53.412;-1.328;2023-08-06T02:36:12;10.90;99.90
22364;DHT22;11349;53.412;-1.328;2023-08-06T02:38:38;10.90;99.90
22364;DHT22;11349;53.412;-1.328;2023-08-06T02:41:04;10.80;99.90
22364;DHT22;11349;53.412;-1.328;2023-08-06T02:43:30;10.80;99.90
22364;DHT22;11349;53.412;-1.328;2023-08-06T02:45:59;10.80;99.90
22364;DHT22;11349;53.412;-1.328;2023-08-06T02:48:25;10.80;99.90
22364;DHT22;11349;53.412;-1.328;2023-08-06T02:50:51;10.80;99.90
22364;DHT22;11349;53.412;-1.328;2023-08-06T02:53:17;10.80;99.90
22364;DHT22;11349;53.412;-1.328;2023-08-06T02:55:46;10.70;99.90
22364;DHT22;11349;53.412;-1.328;2023-08-06T02:58:16;10.70;99.90
22364;DHT22;11349;53.412;-1.328;2023-08-06T03:00:43;10.70;99.90
22364;DHT22;11349;53.412;-1.328;2023-08-06T03:03:09;10.70;99.90
22364;DHT22;11349;53.412;-1.328;2023-08-06T03:05:35;10.70;99.90
22364;DHT22;11349;53.412;-1.328;2023-08-06T03:08:01;10.70;99.90
22364;DHT22;11349;53.412;-1.328;2023-08-06T03:10:27;10.60;99.90
22364;DHT22;11349;53.412;-1.328;2023-08-06T03:12:52;10.60;99.90
22364;DHT22;11349;53.412;-1.328;2023-08-06T03:15:18;10.60;99.90
22364;DHT22;11349;53.412;-1.328;2023-08-06T03:17:44;10.50;99.90
22364;DHT22;11349;53.412;-1.328;2023-08-06T03:20:10;10.50;99.90
22364;DHT22;11349;53.412;-1.328;2023-08-06T03:22:35;10.50;99.90
22364;DHT22;11349;53.412;-1.328;2023-08-06T03:25:01;10.40;99.90
22364;DHT22;11349;53.412;-1.328;2023-08-06T03:27:27;10.40;99.90
22364;DHT22;11349;53.412;-1.328;2023-08-06T03:29:52;10.40;99.90
22364;DHT22;11349;53.412;-1.328;2023-08-06T03:32:18;10.40;99.90
22364;DHT22;11349;53.412;-1.328;2023-08-06T03:34:44;10.30;99.90
22364;DHT22;11349;53.412;-1.328;2023-08-06T03:37:10;10.30;99.90
22364;DHT22;11349;53.412;-1.328;2023-08-06T03:39:35;10.20;99.90
22364;DHT22;11349;53.412;-1.328;2023-08-06T03:42:01;10.20;99.90
22364;DHT22;11349;53.412;-1.328;2023-08-06T03:44:27;10.20;99.90
22364;DHT22;11349;53.412;-1.328;2023-08-06T03:46:53;10.20;99.90
22364;DHT22;11349;53.412;-1.328;2023-08-06T03:49:19;10.20;99.90
22364;DHT22;11349;53.412;-1.328;2023-08-06T03:51:45;10.20;99.90
22364;DHT22;11349;53.412;-1.328;2023-08-06T03:54:11;10.20;99.90
22364;DHT22;11349;53.412;-1.328;2023-08-06T03:56:37;10.20;99.90
22364;DHT22;11349;53.412;-1.328;2023-08-06T03:59:02;10.20;99.90
22364;DHT22;11349;53.412;-1.328;2023-08-06T04:01:28;10.20;99.90
22364;DHT22;11349;53.412;-1.328;2023-08-06T04:03:54;10.20;99.90
22364;DHT22;11349;53.412;-1.328;2023-08-06T04:06:19;10.20;99.90
22364;DHT22;11349;53.412;-1.328;2023-08-06T04:08:45;10.10;99.90
22364;DHT22;11349;53.412;-1.328;2023-08-06T04:11:11;10.10;99.90
22364;DHT22;11349;53.412;-1.328;2023-08-06T04:13:38;10.10;99.90
22364;DHT22;11349;53.412;-1.328;2023-08-06T04:16:04;10.10;99.90
22364;DHT22;11349;53.412;-1.328;2023-08-06T04:18:29;10.10;99.90
22364;DHT22;11349;53.412;-1.328;2023-08-06T04:20:55;10.10;99.90
22364;DHT22;11349;53.412;-1.328;2023-08-06T04:23:23;10.20;99.90
22364;DHT22;11349;53.412;-1.328;2023-08-06T04:25:48;10.20;99.90
22364;DHT22;11349;53.412;-1.328;2023-08-06T04:28:14;10.20;99.90
22364;DHT22;11349;53.412;-1.328;2023-08-06T04:30:40;10.30;99.90
22364;DHT22;11349;53.412;-1.328;2023-08-06T04:33:05;10.30;99.90
22364;DHT22;11349;53.412;-1.328;2023-08-06T04:35:31;10.30;99.90
22364;DHT22;11349;53.412;-1.328;2023-08-06T04:37:57;10.40;99.90
22364;DHT22;11349;53.412;-1.328;2023-08-06T04:40:22;10.40;99.90
22364;DHT22;11349;53.412;-1.328;2023-08-06T04:42:48;10.50;99.90
22364;DHT22;11349;53.412;-1.328;2023-08-06T04:45:14;10.50;99.90
22364;DHT22;11349;53.412;-1.328;2023-08-06T04:47:40;10.60;99.90
22364;DHT22;11349;53.412;-1.328;2023-08-06T04:50:06;10.60;99.90
22364;DHT22;11349;53.412;-1.328;2023-08-06T04:52:31;10.70;99.90
22364;DHT22;11349;53.412;-1.328;2023-08-06T04:54:57;10.70;99.90
22364;DHT22;11349;53.412;-1.328;2023-08-06T04:57:23;10.70;99.90
22364;DHT22;11349;53.412;-1.328;2023-08-06T04:59:49;10.80;99.90
22364;DHT22;11349;53.412;-1.328;2023-08-06T05:02:15;10.80;99.90
22364;DHT22;11349;53.412;-1.328;2023-08-06T05:04:43;10.80;99.90
22364;DHT22;11349;53.412;-1.328;2023-08-06T05:07:10;10.80;99.90
22364;DHT22;11349;53.412;-1.328;2023-08-06T05:09:35;10.90;99.90
22364;DHT22;11349;53.412;-1.328;2023-08-06T05:12:01;10.90;99.90
22364;DHT22;11349;53.412;-1.328;2023-08-06T05:14:28;10.90;99.90
22364;DHT22;11349;53.412;-1.328;2023-08-06T05:16:53;11.00;99.90
22364;DHT22;11349;53.412;-1.328;2023-08-06T05:19:19;11.00;99.90
22364;DHT22;11349;53.412;-1.328;2023-08-06T05:21:45;11.10;99.90
22364;DHT22;11349;53.412;-1.328;2023-08-06T05:24:10;11.10;99.90
22364;DHT22;11349;53.412;-1.328;2023-08-06T05:26:37;11.20;99.90
22364;DHT22;11349;53.412;-1.328;2023-08-06T05:29:03;11.20;20.00
22364;DHT22;11349;53.412;-1.328;2023-08-06T05:31:29;11.30;70.80
22364;DHT22;11349;53.412;-1.328;2023-08-06T05:33:54;11.30;1.00
22364;DHT22;11349;53.412;-1.328;2023-08-06T05:36:20;11.40;1.00
22364;DHT22;11349;53.412;-1.328;2023-08-06T05:38:47;11.40;1.00
22364;DHT22;11349;53.412;-1.328;2023-08-06T05:41:13;11.50;1.00
22364;DHT22;11349;53.412;-1.328;2023-08-06T05:43:39;11.50;1.00
22364;DHT22;11349;53.412;-1.328;2023-08-06T05:46:04;11.60;1.00
22364;DHT22;11349;53.412;-1.328;2023-08-06T05:48:30;11.60;1.00
22364;DHT22;11349;53.412;-1.328;2023-08-06T05:50:57;11.60;1.00
22364;DHT22;11349;53.412;-1.328;2023-08-06T05:53:24;11.60;1.00
22364;DHT22;11349;53.412;-1.328;2023-08-06T05:55:50;11.70;1.00
22364;DHT22;11349;53.412;-1.328;2023-08-06T05:58:16;11.70;99.90
22364;DHT22;11349;53.412;-1.328;2023-08-06T06:00:41;11.80;1.00
22364;DHT22;11349;53.412;-1.328;2023-08-06T06:03:07;11.80;99.90
22364;DHT22;11349;53.412;-1.328;2023-08-06T06:05:33;11.90;99.90
22364;DHT22;11349;53.412;-1.328;2023-08-06T06:07:58;12.00;99.90
22364;DHT22;11349;53.412;-1.328;2023-08-06T06:10:24;12.10;99.90
22364;DHT22;11349;53.412;-1.328;2023-08-06T06:12:50;12.10;99.90
22364;DHT22;11349;53.412;-1.328;2023-08-06T06:15:15;12.30;99.90
22364;DHT22;11349;53.412;-1.328;2023-08-06T06:17:41;12.30;99.90
22364;DHT22;11349;53.412;-1.328;2023-08-06T06:20:07;12.40;99.90
22364;DHT22;11349;53.412;-1.328;2023-08-06T06:22:33;12.50;99.90
22364;DHT22;11349;53.412;-1.328;2023-08-06T06:24:58;12.60;42.90
22364;DHT22;11349;53.412;-1.328;2023-08-06T06:27:24;12.60;1.00
22364;DHT22;11349;53.412;-1.328;2023-08-06T06:29:50;12.70;1.00
22364;DHT22;11349;53.412;-1.328;2023-08-06T06:32:17;12.80;99.90
22364;DHT22;11349;53.412;-1.328;2023-08-06T06:34:43;12.90;99.90
22364;DHT22;11349;53.412;-1.328;2023-08-06T06:37:09;12.90;99.90
22364;DHT22;11349;53.412;-1.328;2023-08-06T06:39:34;13.00;99.90
22364;DHT22;11349;53.412;-1.328;2023-08-06T06:42:00;13.00;99.90
22364;DHT22;11349;53.412;-1.328;2023-08-06T06:44:26;13.00;99.90
22364;DHT22;11349;53.412;-1.328;2023-08-06T06:46:52;13.10;99.90
22364;DHT22;11349;53.412;-1.328;2023-08-06T06:49:18;13.10;99.90
22364;DHT22;11349;53.412;-1.328;2023-08-06T06:51:43;13.10;49.10
22364;DHT22;11349;53.412;-1.328;2023-08-06T06:54:09;13.10;99.90
22364;DHT22;11349;53.412;-1.328;2023-08-06T06:56:35;13.30;3.60
22364;DHT22;11349;53.412;-1.328;2023-08-06T06:59:00;13.70;99.90
22364;DHT22;11349;53.412;-1.328;2023-08-06T07:01:26;14.30;1.00
22364;DHT22;11349;53.412;-1.328;2023-08-06T07:03:52;14.70;99.90
22364;DHT22;11349;53.412;-1.328;2023-08-06T07:06:17;15.20;99.90
22364;DHT22;11349;53.412;-1.328;2023-08-06T07:08:44;15.70;99.90
22364;DHT22;11349;53.412;-1.328;2023-08-06T07:11:10;16.10;99.90
22364;DHT22;11349;53.412;-1.328;2023-08-06T07:13:36;16.40;99.90
22364;DHT22;11349;53.412;-1.328;2023-08-06T07:16:02;16.70;1.00
22364;DHT22;11349;53.412;-1.328;2023-08-06T07:18:27;17.20;99.90
22364;DHT22;11349;53.412;-1.328;2023-08-06T07:20:54;17.50;1.00
22364;DHT22;11349;53.412;-1.328;2023-08-06T07:23:24;17.50;99.90
22364;DHT22;11349;53.412;-1.328;2023-08-06T07:25:50;17.80;99.90
22364;DHT22;11349;53.412;-1.328;2023-08-06T07:28:16;18.00;99.90
22364;DHT22;11349;53.412;-1.328;2023-08-06T07:30:43;18.50;1.00
22364;DHT22;11349;53.412;-1.328;2023-08-06T07:33:09;18.90;92.10
22364;DHT22;11349;53.412;-1.328;2023-08-06T07:35:35;19.20;99.90
22364;DHT22;11349;53.412;-1.328;2023-08-06T07:38:02;19.60;99.90
22364;DHT22;11349;53.412;-1.328;2023-08-06T07:40:28;20.00;86.50
22364;DHT22;11349;53.412;-1.328;2023-08-06T07:42:54;20.20;99.90
22364;DHT22;11349;53.412;-1.328;2023-08-06T07:45:20;20.40;99.90
22364;DHT22;11349;53.412;-1.328;2023-08-06T07:47:46;20.60;1.00
22364;DHT22;11349;53.412;-1.328;2023-08-06T07:50:12;20.40;1.00
22364;DHT22;11349;53.412;-1.328;2023-08-06T07:52:38;20.20;99.90
22364;DHT22;11349;53.412;-1.328;2023-08-06T07:55:04;20.00;71.70
22364;DHT22;11349;53.412;-1.328;2023-08-06T07:57:33;20.30;6.00
22364;DHT22;11349;53.412;-1.328;2023-08-06T08:00:00;20.40;1.00
22364;DHT22;11349;53.412;-1.328;2023-08-06T08:02:27;20.60;99.90
22364;DHT22;11349;53.412;-1.328;2023-08-06T08:04:52;20.70;99.90
22364;DHT22;11349;53.412;-1.328;2023-08-06T08:07:18;20.80;99.90
22364;DHT22;11349;53.412;-1.328;2023-08-06T08:09:44;20.50;99.90
22364;DHT22;11349;53.412;-1.328;2023-08-06T08:12:10;20.80;99.90
22364;DHT22;11349;53.412;-1.328;2023-08-06T08:14:35;20.90;1.00
22364;DHT22;11349;53.412;-1.328;2023-08-06T08:17:03;21.00;92.10
22364;DHT22;11349;53.412;-1.328;2023-08-06T08:19:30;20.90;99.90
22364;DHT22;11349;53.412;-1.328;2023-08-06T08:21:56;20.80;9.10
22364;DHT22;11349;53.412;-1.328;2023-08-06T08:24:22;21.00;99.90
22364;DHT22;11349;53.412;-1.328;2023-08-06T08:26:51;21.40;99.90
22364;DHT22;11349;53.412;-1.328;2023-08-06T08:29:17;20.90;99.90
22364;DHT22;11349;53.412;-1.328;2023-08-06T08:31:43;20.60;1.00
22364;DHT22;11349;53.412;-1.328;2023-08-06T08:34:10;21.00;1.00
22364;DHT22;11349;53.412;-1.328;2023-08-06T08:36:35;20.90;1.00
22364;DHT22;11349;53.412;-1.328;2023-08-06T08:39:01;21.30;25.50
22364;DHT22;11349;53.412;-1.328;2023-08-06T08:41:30;20.70;1.00
22364;DHT22;11349;53.412;-1.328;2023-08-06T08:43:58;21.50;99.90
22364;DHT22;11349;53.412;-1.328;2023-08-06T08:46:27;20.90;1.00
22364;DHT22;11349;53.412;-1.328;2023-08-06T08:48:55;21.40;1.00
22364;DHT22;11349;53.412;-1.328;2023-08-06T08:51:23;21.20;1.00
22364;DHT22;11349;53.412;-1.328;2023-08-06T08:53:50;21.50;1.00
22364;DHT22;11349;53.412;-1.328;2023-08-06T08:56:19;22.30;34.30
22364;DHT22;11349;53.412;-1.328;2023-08-06T08:58:45;22.70;15.20
22364;DHT22;11349;53.412;-1.328;2023-08-06T09:01:13;22.60;1.00
22364;DHT22;11349;53.412;-1.328;2023-08-06T09:03:41;22.90;21.70
22364;DHT22;11349;53.412;-1.328;2023-08-06T09:06:08;22.60;1.00
22364;DHT22;11349;53.412;-1.328;2023-08-06T09:08:40;22.30;18.20
22364;DHT22;11349;53.412;-1.328;2023-08-06T09:11:09;21.60;1.00
22364;DHT22;11349;53.412;-1.328;2023-08-06T09:13:37;21.80;1.00
22364;DHT22;11349;53.412;-1.328;2023-08-06T09:16:04;21.60;1.00
22364;DHT22;11349;53.412;-1.328;2023-08-06T09:18:30;21.70;1.00
22364;DHT22;11349;53.412;-1.328;2023-08-06T09:20:57;22.00;1.00
22364;DHT22;11349;53.412;-1.328;2023-08-06T09:23:30;21.70;1.00
22364;DHT22;11349;53.412;-1.328;2023-08-06T09:25:57;21.60;1.00
22364;DHT22;11349;53.412;-1.328;2023-08-06T09:28:23;21.50;1.00
22364;DHT22;11349;53.412;-1.328;2023-08-06T09:30:50;20.70;1.00
22364;DHT22;11349;53.412;-1.328;2023-08-06T09:33:22;20.80;1.00
22364;DHT22;11349;53.412;-1.328;2023-08-06T09:35:48;21.60;1.00
22364;DHT22;11349;53.412;-1.328;2023-08-06T09:38:14;21.80;1.00
22364;DHT22;11349;53.412;-1.328;2023-08-06T09:40:39;21.60;1.00
22364;DHT22;11349;53.412;-1.328;2023-08-06T09:43:06;22.00;1.00
22364;DHT22;11349;53.412;-1.328;2023-08-06T09:45:36;22.20;1.00
22364;DHT22;11349;53.412;-1.328;2023-08-06T09:48:07;22.00;1.00
22364;DHT22;11349;53.412;-1.328;2023-08-06T09:50:37;22.00;1.00
22364;DHT22;11349;53.412;-1.328;2023-08-06T09:53:07;21.90;1.00
22364;DHT22;11349;53.412;-1.328;2023-08-06T09:55:34;21.90;1.00
22364;DHT22;11349;53.412;-1.328;2023-08-06T09:58:00;21.60;1.00
22364;DHT22;11349;53.412;-1.328;2023-08-06T10:00:26;21.50;1.00
22364;DHT22;11349;53.412;-1.328;2023-08-06T10:02:54;21.40;1.00
22364;DHT22;11349;53.412;-1.328;2023-08-06T10:05:22;21.10;1.00
22364;DHT22;11349;53.412;-1.328;2023-08-06T10:07:49;21.20;1.00
22364;DHT22;11349;53.412;-1.328;2023-08-06T10:10:16;21.10;1.00
22364;DHT22;11349;53.412;-1.328;2023-08-06T10:12:51;20.80;1.00
22364;DHT22;11349;53.412;-1.328;2023-08-06T10:15:22;20.90;1.00
22364;DHT22;11349;53.412;-1.328;2023-08-06T10:17:52;20.80;1.00
22364;DHT22;11349;53.412;-1.328;2023-08-06T10:20:20;20.30;99.90
22364;DHT22;11349;53.412;-1.328;2023-08-06T10:23:03;20.60;1.00
22364;DHT22;11349;53.412;-1.328;2023-08-06T10:25:31;20.60;99.90
22364;DHT22;11349;53.412;-1.328;2023-08-06T10:27:58;20.50;99.90
22364;DHT22;11349;53.412;-1.328;2023-08-06T10:32:57;20.10;1.00
22364;DHT22;11349;53.412;-1.328;2023-08-06T10:37:58;19.70;99.90
22364;DHT22;11349;53.412;-1.328;2023-08-06T10:40:24;19.80;99.90
22364;DHT22;11349;53.412;-1.328;2023-08-06T10:42:51;19.30;99.90
22364;DHT22;11349;53.412;-1.328;2023-08-06T10:45:18;19.30;1.00
22364;DHT22;11349;53.412;-1.328;2023-08-06T10:47:45;19.70;99.90
22364;DHT22;11349;53.412;-1.328;2023-08-06T10:50:16;19.90;1.00
22364;DHT22;11349;53.412;-1.328;2023-08-06T10:52:46;20.00;1.00
22364;DHT22;11349;53.412;-1.328;2023-08-06T10:55:12;20.00;99.90
22364;DHT22;11349;53.412;-1.328;2023-08-06T10:57:38;20.00;99.90
22364;DHT22;11349;53.412;-1.328;2023-08-06T11:00:05;20.10;1.00
22364;DHT22;11349;53.412;-1.328;2023-08-06T11:02:36;20.00;99.90
22364;DHT22;11349;53.412;-1.328;2023-08-06T11:05:09;20.30;1.00
22364;DHT22;11349;53.412;-1.328;2023-08-06T11:07:35;20.30;1.00
22364;DHT22;11349;53.412;-1.328;2023-08-06T11:10:06;20.30;99.90
22364;DHT22;11349;53.412;-1.328;2023-08-06T11:12:33;20.30;1.00
22364;DHT22;11349;53.412;-1.328;2023-08-06T11:14:59;20.30;1.00
22364;DHT22;11349;53.412;-1.328;2023-08-06T11:17:26;20.30;1.00
22364;DHT22;11349;53.412;-1.328;2023-08-06T11:19:52;20.40;99.90
22364;DHT22;11349;53.412;-1.328;2023-08-06T11:22:20;20.20;1.00
22364;DHT22;11349;53.412;-1.328;2023-08-06T11:24:47;20.30;1.00
22364;DHT22;11349;53.412;-1.328;2023-08-06T11:27:17;20.20;99.90
22364;DHT22;11349;53.412;-1.328;2023-08-06T11:29:44;20.20;99.90
22364;DHT22;11349;53.412;-1.328;2023-08-06T11:32:10;20.10;1.00
22364;DHT22;11349;53.412;-1.328;2023-08-06T11:34:37;19.90;99.90
22364;DHT22;11349;53.412;-1.328;2023-08-06T11:37:03;19.70;1.00
22364;DHT22;11349;53.412;-1.328;2023-08-06T11:39:36;19.80;1.00
22364;DHT22;11349;53.412;-1.328;2023-08-06T11:42:08;19.40;1.00
22364;DHT22;11349;53.412;-1.328;2023-08-06T11:44:37;19.40;1.00
22364;DHT22;11349;53.412;-1.328;2023-08-06T11:47:05;19.00;1.00
22364;DHT22;11349;53.412;-1.328;2023-08-06T11:52:38;19.00;1.00
22364;DHT22;11349;53.412;-1.328;2023-08-06T11:55:06;19.20;1.00
22364;DHT22;11349;53.412;-1.328;2023-08-06T11:57:34;19.30;1.00
22364;DHT22;11349;53.412;-1.328;2023-08-06T12:00:06;19.40;1.00
22364;DHT22;11349;53.412;-1.328;2023-08-06T12:02:33;19.30;1.00
22364;DHT22;11349;53.412;-1.328;2023-08-06T12:05:14;19.40;1.00
22364;DHT22;11349;53.412;-1.328;2023-08-06T12:07:51;19.40;1.00
22364;DHT22;11349;53.412;-1.328;2023-08-06T12:10:18;19.50;1.00
22364;DHT22;11349;53.412;-1.328;2023-08-06T12:12:45;19.50;1.00
22364;DHT22;11349;53.412;-1.328;2023-08-06T12:15:11;19.30;99.90
22364;DHT22;11349;53.412;-1.328;2023-08-06T12:17:37;19.10;99.90
22364;DHT22;11349;53.412;-1.328;2023-08-06T12:20:04;19.10;99.90
22364;DHT22;11349;53.412;-1.328;2023-08-06T12:22:31;18.90;1.00
22364;DHT22;11349;53.412;-1.328;2023-08-06T12:25:01;19.10;1.00
22364;DHT22;11349;53.412;-1.328;2023-08-06T12:27:28;18.50;1.00
22364;DHT22;11349;53.412;-1.328;2023-08-06T12:29:54;18.60;1.00
22364;DHT22;11349;53.412;-1.328;2023-08-06T12:32:20;18.90;1.00
22364;DHT22;11349;53.412;-1.328;2023-08-06T12:34:45;18.80;1.00
22364;DHT22;11349;53.412;-1.328;2023-08-06T12:37:11;18.70;1.00
22364;DHT22;11349;53.412;-1.328;2023-08-06T12:39:37;18.80;1.00
22364;DHT22;11349;53.412;-1.328;2023-08-06T12:42:04;18.80;52.20
22364;DHT22;11349;53.412;-1.328;2023-08-06T12:44:30;19.00;79.50
22364;DHT22;11349;53.412;-1.328;2023-08-06T12:46:56;18.90;10.30
22364;DHT22;11349;53.412;-1.328;2023-08-06T12:49:23;18.60;1.00
22364;DHT22;11349;53.412;-1.328;2023-08-06T12:51:50;18.60;99.90
22364;DHT22;11349;53.412;-1.328;2023-08-06T12:54:20;18.50;99.90
22364;DHT22;11349;53.412;-1.328;2023-08-06T12:56:46;18.50;87.10
22364;DHT22;11349;53.412;-1.328;2023-08-06T12:59:14;18.50;99.90
22364;DHT22;11349;53.412;-1.328;2023-08-06T13:01:41;18.60;96.80
22364;DHT22;11349;53.412;-1.328;2023-08-06T13:04:06;18.50;99.90
22364;DHT22;11349;53.412;-1.328;2023-08-06T13:06:32;18.40;99.90
22364;DHT22;11349;53.412;-1.328;2023-08-06T13:09:08;18.30;99.90
22364;DHT22;11349;53.412;-1.328;2023-08-06T13:11:35;18.30;99.90
22364;DHT22;11349;53.412;-1.328;2023-08-06T13:14:09;18.50;99.90
22364;DHT22;11349;53.412;-1.328;2023-08-06T13:16:42;18.60;99.90
22364;DHT22;11349;53.412;-1.328;2023-08-06T13:19:09;18.70;99.90
22364;DHT22;11349;53.412;-1.328;2023-08-06T13:22:02;18.80;99.90
22364;DHT22;11349;53.412;-1.328;2023-08-06T13:24:29;18.70;40.00
22364;DHT22;11349;53.412;-1.328;2023-08-06T13:26:55;19.00;1.00
22364;DHT22;11349;53.412;-1.328;2023-08-06T13:29:21;19.10;1.00
22364;DHT22;11349;53.412;-1.328;2023-08-06T13:31:46;18.90;1.00
22364;DHT22;11349;53.412;-1.328;2023-08-06T13:34:12;18.90;99.90
22364;DHT22;11349;53.412;-1.328;2023-08-06T13:36:40;18.60;99.90
22364;DHT22;11349;53.412;-1.328;2023-08-06T13:39:06;18.60;1.00
22364;DHT22;11349;53.412;-1.328;2023-08-06T13:41:32;18.30;1.00
22364;DHT22;11349;53.412;-1.328;2023-08-06T13:43:57;18.60;1.00
22364;DHT22;11349;53.412;-1.328;2023-08-06T13:46:23;18.70;1.00
22364;DHT22;11349;53.412;-1.328;2023-08-06T13:48:49;18.50;1.00
22364;DHT22;11349;53.412;-1.328;2023-08-06T13:51:18;18.70;1.00
22364;DHT22;11349;53.412;-1.328;2023-08-06T13:53:44;18.70;99.90
22364;DHT22;11349;53.412;-1.328;2023-08-06T13:56:10;18.70;1.00
22364;DHT22;11349;53.412;-1.328;2023-08-06T13:58:37;18.80;1.00
22364;DHT22;11349;53.412;-1.328;2023-08-06T14:01:03;18.70;1.00
22364;DHT22;11349;53.412;-1.328;2023-08-06T14:03:29;19.00;1.00
22364;DHT22;11349;53.412;-1.328;2023-08-06T14:05:55;19.10;1.00
22364;DHT22;11349;53.412;-1.328;2023-08-06T14:08:22;19.10;99.90
22364;DHT22;11349;53.412;-1.328;2023-08-06T14:10:49;19.00;99.90
22364;DHT22;11349;53.412;-1.328;2023-08-06T14:13:14;18.80;1.00
22364;DHT22;11349;53.412;-1.328;2023-08-06T14:15:40;19.00;1.00
22364;DHT22;11349;53.412;-1.328;2023-08-06T14:18:09;19.10;1.00
22364;DHT22;11349;53.412;-1.328;2023-08-06T14:20:35;19.00;99.90
22364;DHT22;11349;53.412;-1.328;2023-08-06T14:23:00;19.10;99.90
22364;DHT22;11349;53.412;-1.328;2023-08-06T14:25:26;19.00;99.90
22364;DHT22;11349;53.412;-1.328;2023-08-06T14:27:52;19.00;99.90
22364;DHT22;11349;53.412;-1.328;2023-08-06T14:30:18;18.70;99.90
22364;DHT22;11349;53.412;-1.328;2023-08-06T14:32:44;18.80;99.90
22364;DHT22;11349;53.412;-1.328;2023-08-06T14:35:09;18.90;99.90
22364;DHT22;11349;53.412;-1.328;2023-08-06T14:37:35;19.00;99.90
22364;DHT22;11349;53.412;-1.328;2023-08-06T14:40:01;18.90;99.90
22364;DHT22;11349;53.412;-1.328;2023-08-06T14:42:27;18.80;1.00
22364;DHT22;11349;53.412;-1.328;2023-08-06T14:44:53;18.70;99.90
22364;DHT22;11349;53.412;-1.328;2023-08-06T14:47:19;18.70;99.90
22364;DHT22;11349;53.412;-1.328;2023-08-06T14:49:45;18.80;99.90
22364;DHT22;11349;53.412;-1.328;2023-08-06T14:52:10;18.90;99.90
22364;DHT22;11349;53.412;-1.328;2023-08-06T14:54:36;18.80;99.90
22364;DHT22;11349;53.412;-1.328;2023-08-06T14:57:02;18.80;99.90
22364;DHT22;11349;53.412;-1.328;2023-08-06T14:59:27;18.70;99.90
22364;DHT22;11349;53.412;-1.328;2023-08-06T15:01:53;18.80;99.90
22364;DHT22;11349;53.412;-1.328;2023-08-06T15:04:19;18.70;99.90
22364;DHT22;11349;53.412;-1.328;2023-08-06T15:06:45;18.80;1.00
22364;DHT22;11349;53.412;-1.328;2023-08-06T15:09:11;19.00;99.90
22364;DHT22;11349;53.412;-1.328;2023-08-06T15:11:37;19.00;1.00
22364;DHT22;11349;53.412;-1.328;2023-08-06T15:14:03;18.90;99.90
22364;DHT22;11349;53.412;-1.328;2023-08-06T15:16:30;18.70;99.90
22364;DHT22;11349;53.412;-1.328;2023-08-06T15:18:56;18.70;96.90
22364;DHT22;11349;53.412;-1.328;2023-08-06T15:21:22;18.60;1.00
22364;DHT22;11349;53.412;-1.328;2023-08-06T15:23:47;18.70;1.00
22364;DHT22;11349;53.412;-1.328;2023-08-06T15:26:13;18.70;99.90
22364;DHT22;11349;53.412;-1.328;2023-08-06T15:28:39;18.70;99.90
22364;DHT22;11349;53.412;-1.328;2023-08-06T15:31:05;18.80;1.00